Time;durP1;ratioP1;P1;durP2;ratioP2;P2;SDS_P1;SDS_P2;PMS_P1;PMS_P2;Temp;Humidity;BMP_temperature;BMP_pressure;BME280_temperature;BME280_humidity;BME280_pressure;Samples;Min_cycle;Max_cycle;Signal;HPM_P1;HPM_P2
2022/02/06 00:00:24;;;;;;;17.12;11.20;;;;;;;;;;143726;595;46919;-60
2022/02/06 00:02:51;;;;;;;21.12;12.30;;;;;;;;;;143731;570;46012;-59
2022/02/06 00:05:18;;;;;;;23.95;13.75;;;;;;;;;;143733;614;46022;-60
2022/02/06 00:07:47;;;;;;;22.10;13.25;;;;;;;;;;143729;593;46911;-59
2022/02/06 00:10:14;;;;;;;22.23;14.60;;;;;;;;;;143726;671;46023;-59
2022/02/06 00:12:41;;;;;;;30.27;16.42;;;;;;;;;;143729;614;46012;-60
2022/02/06 00:15:09;;;;;;;27.25;15.77;;;;;;;;;;143732;585;46011;-60
2022/02/06 00:17:37;;;;;;;19.83;12.13;;;;;;;;;;143728;564;46021;-60
2022/02/06 00:20:05;;;;;;;22.60;14.25;;;;;;;;;;143726;586;46022;-59
2022/02/06 00:25:38;;;;;;;33.50;18.80;;;;;;;;;;143730;637;46023;-60
2022/02/06 00:28:20;;;;;;;30.67;18.10;;;;;;;;;;143729;587;46020;-59
2022/02/06 00:30:59;;;;;;;26.65;16.12;;;;;;;;;;143727;613;46922;-60
2022/02/06 00:33:41;;;;;;;28.27;17.60;;;;;;;;;;143727;577;46913;-59
2022/02/06 00:39:04;;;;;;;24.55;16.35;;;;;;;;;;143731;576;46013;-59
2022/02/06 00:41:36;;;;;;;26.90;16.05;;;;;;;;;;143728;579;46022;-59
2022/02/06 00:44:05;;;;;;;20.77;14.25;;;;;;;;;;143728;609;46012;-59
2022/02/06 00:46:39;;;;;;;24.33;14.43;;;;;;;;;;143734;608;45023;-60
2022/02/06 00:49:25;;;;;;;20.27;12.73;;;;;;;;;;143730;583;46020;-60
2022/02/06 00:52:02;;;;;;;23.38;12.90;;;;;;;;;;143727;564;46022;-59
2022/02/06 00:54:30;;;;;;;17.55;11.85;;;;;;;;;;143728;569;46024;-59
2022/02/06 00:56:57;;;;;;;20.50;12.73;;;;;;;;;;143734;575;45022;-60
2022/02/06 00:59:24;;;;;;;18.65;12.50;;;;;;;;;;143730;627;46020;-60
2022/02/06 01:01:51;;;;;;;18.73;11.82;;;;;;;;;;143729;581;46023;-60
2022/02/06 01:04:18;;;;;;;17.08;11.38;;;;;;;;;;143727;612;46018;-60
2022/02/06 01:06:46;;;;;;;19.95;12.15;;;;;;;;;;143734;577;45025;-60
2022/02/06 01:09:15;;;;;;;15.63;11.40;;;;;;;;;;143730;603;46019;-59
2022/02/06 01:11:42;;;;;;;20.50;11.82;;;;;;;;;;143727;593;46022;-59
2022/02/06 01:17:06;;;;;;;20.73;12.10;;;;;;;;;;143734;601;45023;-60
2022/02/06 01:19:51;;;;;;;17.42;10.88;;;;;;;;;;143728;595;46020;-59
2022/02/06 01:22:22;;;;;;;17.05;10.68;;;;;;;;;;143727;611;46022;-59
2022/02/06 01:25:06;;;;;;;16.98;11.18;;;;;;;;;;143727;599;46012;-60
2022/02/06 01:27:45;;;;;;;14.10;11.18;;;;;;;;;;143734;593;45022;-59
2022/02/06 01:30:19;;;;;;;13.35;9.20;;;;;;;;;;143729;586;46020;-59
2022/02/06 01:32:58;;;;;;;16.33;10.63;;;;;;;;;;143727;577;46023;-59
2022/02/06 01:35:41;;;;;;;17.95;10.20;;;;;;;;;;143726;598;46012;-59
2022/02/06 01:38:27;;;;;;;17.12;11.23;;;;;;;;;;143732;618;45032;-59
2022/02/06 01:41:00;;;;;;;25.10;14.98;;;;;;;;;;143730;587;46021;-60
2022/02/06 01:43:42;;;;;;;20.77;14.32;;;;;;;;;;143727;605;46022;-60
2022/02/06 01:46:22;;;;;;;22.80;14.45;;;;;;;;;;143730;610;46012;-60
2022/02/06 02:02:56;;;;;;;35.67;22.30;;;;;;;;;;143728;597;46012;-60
2022/02/06 02:14:29;;;;;;;31.50;19.12;;;;;;;;;;143730;569;46018;-60
2022/02/06 02:23:25;;;;;;;33.60;20.27;;;;;;;;;;143730;629;46023;-59
2022/02/06 02:43:06;;;;;;;23.15;15.77;;;;;;;;;;143729;581;46020;-59
2022/02/06 02:48:23;;;;;;;27.45;17.35;;;;;;;;;;143728;606;46014;-60
2022/02/06 02:50:57;;;;;;;26.98;16.95;;;;;;;;;;143727;656;46022;-60
2022/02/06 02:59:14;;;;;;;23.23;14.52;;;;;;;;;;143726;660;46018;-60
2022/02/06 03:01:59;;;;;;;23.77;13.35;;;;;;;;;;143730;566;46022;-60
2022/02/06 03:04:26;;;;;;;21.48;14.27;;;;;;;;;;143728;574;46012;-59
2022/02/06 03:06:53;;;;;;;21.23;12.98;;;;;;;;;;143732;640;45023;-59
2022/02/06 03:09:22;;;;;;;19.20;13.35;;;;;;;;;;143728;639;46021;-59
2022/02/06 03:11:49;;;;;;;20.60;13.00;;;;;;;;;;143727;569;46022;-60
2022/02/06 03:14:37;;;;;;;20.83;12.82;;;;;;;;;;143724;590;47014;-60
2022/02/06 03:17:05;;;;;;;20.48;13.13;;;;;;;;;;143731;587;45023;-60
2022/02/06 03:19:40;;;;;;;19.98;11.93;;;;;;;;;;143728;577;46020;-59
2022/02/06 03:22:07;;;;;;;21.70;13.57;;;;;;;;;;143725;583;46023;-60
2022/02/06 03:24:41;;;;;;;21.02;12.37;;;;;;;;;;143727;673;46012;-59
2022/02/06 03:27:08;;;;;;;16.50;11.68;;;;;;;;;;143732;583;45022;-59
2022/02/06 03:29:35;;;;;;;17.55;11.65;;;;;;;;;;143727;605;46046;-59
2022/02/06 03:32:02;;;;;;;18.20;10.98;;;;;;;;;;143725;566;46022;-60
2022/02/06 03:34:29;;;;;;;19.25;12.05;;;;;;;;;;143727;595;46012;-59
2022/02/06 03:36:56;;;;;;;18.37;11.05;;;;;;;;;;143731;588;46022;-59
2022/02/06 03:39:24;;;;;;;17.50;12.23;;;;;;;;;;143730;618;46021;-59
2022/02/06 03:42:05;;;;;;;19.52;11.90;;;;;;;;;;143724;612;46022;-59
2022/02/06 03:47:23;;;;;;;23.17;12.77;;;;;;;;;;143730;591;46022;-60
2022/02/06 03:50:00;;;;;;;20.88;14.35;;;;;;;;;;143728;579;46020;-59
2022/02/06 03:52:44;;;;;;;17.75;12.20;;;;;;;;;;143728;583;46023;-59
2022/02/06 03:55:18;;;;;;;23.35;14.05;;;;;;;;;;143728;669;46012;-59
2022/02/06 03:57:47;;;;;;;24.95;15.07;;;;;;;;;;143730;595;46022;-59
2022/02/06 04:00:15;;;;;;;21.95;15.02;;;;;;;;;;143728;570;46021;-59
2022/02/06 04:02:42;;;;;;;19.42;11.10;;;;;;;;;;143725;574;46022;-59
2022/02/06 04:05:10;;;;;;;22.83;14.27;;;;;;;;;;143729;619;45018;-59
2022/02/06 04:07:37;;;;;;;24.30;14.15;;;;;;;;;;143731;594;46023;-60
2022/02/06 04:10:05;;;;;;;19.00;12.95;;;;;;;;;;143727;564;46020;-60
2022/02/06 04:12:32;;;;;;;22.23;13.43;;;;;;;;;;143726;583;46022;-59
2022/02/06 04:15:04;;;;;;;23.98;14.55;;;;;;;;;;143729;574;46012;-60
2022/02/06 04:17:43;;;;;;;20.37;13.57;;;;;;;;;;143731;583;46022;-59
2022/02/06 04:20:10;;;;;;;25.48;15.32;;;;;;;;;;143727;574;46018;-59
2022/02/06 04:22:38;;;;;;;27.30;17.73;;;;;;;;;;143725;602;46023;-60
2022/02/06 04:25:05;;;;;;;27.30;17.10;;;;;;;;;;143726;616;46012;-59
2022/02/06 04:27:32;;;;;;;42.28;25.30;;;;;;;;;;143730;702;46022;-60
2022/02/06 04:30:00;;;;;;;30.98;20.08;;;;;;;;;;143728;597;46020;-59
2022/02/06 04:32:27;;;;;;;43.22;24.10;;;;;;;;;;143725;588;46022;-59
2022/02/06 04:34:56;;;;;;;33.88;20.90;;;;;;;;;;143728;582;46014;-59
2022/02/06 04:43:18;;;;;;;43.97;25.20;;;;;;;;;;143729;578;45920;-59
2022/02/06 04:46:13;;;;;;;36.72;22.98;;;;;;;;;;143726;588;46909;-59
2022/02/06 04:52:02;;;;;;;36.15;21.80;;;;;;;;;;143728;573;46020;-59
2022/02/06 05:16:48;;;;;;;36.92;23.55;;;;;;;;;;143729;591;45921;-59
2022/02/06 05:19:58;;;;;;;34.25;22.17;;;;;;;;;;143726;578;46012;-60
2022/02/06 05:22:40;;;;;;;34.80;22.05;;;;;;;;;;143729;580;46023;-59
2022/02/06 05:28:24;;;;;;;33.53;20.90;;;;;;;;;;143729;591;45921;-59
2022/02/06 05:33:38;;;;;;;39.03;23.23;;;;;;;;;;143730;569;46022;-59
2022/02/06 05:36:09;;;;;;;41.30;25.12;;;;;;;;;;143727;585;46020;-59
2022/02/06 05:38:36;;;;;;;41.10;27.02;;;;;;;;;;143727;600;46022;-60
2022/02/06 05:41:05;;;;;;;37.75;25.77;;;;;;;;;;143728;594;46012;-60
2022/02/06 05:43:32;;;;;;;39.55;25.25;;;;;;;;;;143730;605;46012;-59
2022/02/06 05:45:59;;;;;;;39.30;24.12;;;;;;;;;;143726;564;47018;-60
2022/02/06 05:48:26;;;;;;;35.38;21.85;;;;;;;;;;143727;564;46022;-59
2022/02/06 05:50:53;;;;;;;28.23;19.20;;;;;;;;;;143728;587;46013;-59
2022/02/06 05:53:20;;;;;;;38.83;24.23;;;;;;;;;;143731;591;46023;-59
2022/02/06 05:55:47;;;;;;;38.17;23.62;;;;;;;;;;143726;584;47018;-60
2022/02/06 05:58:14;;;;;;;36.13;20.15;;;;;;;;;;143725;583;46023;-60
2022/02/06 06:00:41;;;;;;;33.65;23.38;;;;;;;;;;143728;589;46012;-59
2022/02/06 06:03:08;;;;;;;34.30;22.52;;;;;;;;;;143731;600;46022;-60
2022/02/06 06:05:36;;;;;;;35.70;23.30;;;;;;;;;;143728;587;46019;-60
2022/02/06 06:08:03;;;;;;;36.00;22.98;;;;;;;;;;143727;569;46022;-59
2022/02/06 06:10:30;;;;;;;37.83;25.33;;;;;;;;;;143728;584;46012;-60
2022/02/06 06:13:00;;;;;;;31.10;21.73;;;;;;;;;;143731;613;46022;-59
2022/02/06 06:15:30;;;;;;;37.17;23.05;;;;;;;;;;143727;591;46021;-60
2022/02/06 06:18:03;;;;;;;33.63;22.30;;;;;;;;;;143725;579;46022;-60
2022/02/06 06:20:31;;;;;;;36.78;23.02;;;;;;;;;;143727;601;46013;-59
2022/02/06 06:22:58;;;;;;;34.05;24.30;;;;;;;;;;143730;605;46023;-60
2022/02/06 06:25:31;;;;;;;39.85;26.17;;;;;;;;;;143728;628;46020;-59
2022/02/06 06:27:58;;;;;;;36.05;24.30;;;;;;;;;;143727;568;46023;-59
2022/02/06 06:30:27;;;;;;;34.20;21.85;;;;;;;;;;143726;683;46012;-59
2022/02/06 06:32:54;;;;;;;30.85;21.40;;;;;;;;;;143730;679;46022;-59
2022/02/06 06:35:21;;;;;;;35.95;23.92;;;;;;;;;;143727;616;46020;-59
2022/02/06 06:37:49;;;;;;;38.47;22.37;;;;;;;;;;143727;576;46022;-59
2022/02/06 06:40:16;;;;;;;38.80;24.87;;;;;;;;;;143727;564;46018;-58
2022/02/06 06:42:44;;;;;;;38.90;27.33;;;;;;;;;;143732;579;45022;-60
2022/02/06 06:45:11;;;;;;;39.08;26.52;;;;;;;;;;143728;576;46021;-59
2022/02/06 06:47:38;;;;;;;33.10;21.77;;;;;;;;;;143728;606;46022;-60
2022/02/06 06:50:05;;;;;;;40.17;26.42;;;;;;;;;;143728;619;46013;-60
2022/02/06 06:52:32;;;;;;;36.28;25.90;;;;;;;;;;143732;594;46012;-59
2022/02/06 06:55:04;;;;;;;37.25;26.35;;;;;;;;;;143728;657;46020;-59
2022/02/06 06:57:39;;;;;;;34.08;23.17;;;;;;;;;;143727;690;46023;-59
2022/02/06 07:02:43;;;;;;;43.78;28.42;;;;;;;;;;143729;579;46022;-60
2022/02/06 07:05:10;;;;;;;39.33;27.65;;;;;;;;;;143726;576;46020;-59
2022/02/06 07:07:37;;;;;;;42.13;26.55;;;;;;;;;;143727;605;46022;-59
2022/02/06 07:10:06;;;;;;;42.50;29.12;;;;;;;;;;143727;594;46014;-60
2022/02/06 07:12:33;;;;;;;40.42;26.65;;;;;;;;;;143731;658;46022;-60
2022/02/06 07:15:00;;;;;;;42.38;29.42;;;;;;;;;;143728;586;46018;-60
2022/02/06 07:17:27;;;;;;;42.75;28.08;;;;;;;;;;143727;653;46022;-61
2022/02/06 07:19:54;;;;;;;42.42;28.38;;;;;;;;;;143726;566;46012;-60
2022/02/06 07:22:21;;;;;;;50.72;32.05;;;;;;;;;;143732;588;45023;-61
2022/02/06 07:24:51;;;;;;;47.53;29.27;;;;;;;;;;143728;626;46020;-61
2022/02/06 07:27:24;;;;;;;39.33;27.45;;;;;;;;;;143725;621;46028;-61
2022/02/06 07:29:52;;;;;;;36.38;25.27;;;;;;;;;;143727;567;46012;-61
2022/02/06 07:32:19;;;;;;;37.55;25.37;;;;;;;;;;143731;603;46022;-62
2022/02/06 07:34:46;;;;;;;33.03;23.60;;;;;;;;;;143727;626;46020;-62
2022/02/06 07:37:13;;;;;;;34.45;24.52;;;;;;;;;;143725;710;46023;-62
2022/02/06 07:39:40;;;;;;;33.22;22.67;;;;;;;;;;143726;569;46012;-62
2022/02/06 07:42:09;;;;;;;26.23;19.98;;;;;;;;;;143731;582;46022;-62
2022/02/06 07:44:37;;;;;;;33.28;21.10;;;;;;;;;;143727;588;46021;-62
2022/02/06 07:47:19;;;;;;;28.33;20.12;;;;;;;;;;143726;654;46865;-62
2022/02/06 07:49:49;;;;;;;29.55;18.58;;;;;;;;;;143729;611;46012;-63
2022/02/06 07:52:18;;;;;;;25.15;19.15;;;;;;;;;;143732;620;45023;-63
2022/02/06 07:54:46;;;;;;;27.73;19.23;;;;;;;;;;143727;571;46020;-64
2022/02/06 07:57:13;;;;;;;34.13;18.85;;;;;;;;;;143725;614;46023;-64
2022/02/06 07:59:40;;;;;;;25.45;17.23;;;;;;;;;;143726;578;46012;-65
2022/02/06 08:02:07;;;;;;;26.65;18.00;;;;;;;;;;143731;569;46012;-65
2022/02/06 08:04:35;;;;;;;26.67;18.83;;;;;;;;;;143728;787;46020;-66
2022/02/06 08:07:04;;;;;;;23.65;17.17;;;;;;;;;;143725;581;46023;-64
2022/02/06 08:09:49;;;;;;;22.98;16.65;;;;;;;;;;143725;636;46012;-64
2022/02/06 08:12:16;;;;;;;34.77;19.47;;;;;;;;;;143729;566;46013;-63
2022/02/06 08:14:56;;;;;;;22.60;17.02;;;;;;;;;;143728;610;46018;-62
2022/02/06 08:17:36;;;;;;;31.45;18.27;;;;;;;;;;143724;617;46022;-62
2022/02/06 08:20:12;;;;;;;29.98;21.42;;;;;;;;;;143730;600;45019;-61
2022/02/06 08:22:41;;;;;;;29.40;21.52;;;;;;;;;;143732;589;45023;-61
2022/02/06 08:25:09;;;;;;;38.38;26.23;;;;;;;;;;143728;569;46020;-61
2022/02/06 08:27:37;;;;;;;40.75;28.65;;;;;;;;;;143726;606;46023;-60
2022/02/06 08:30:04;;;;;;;36.85;25.50;;;;;;;;;;143726;692;46012;-60
2022/02/06 08:32:32;;;;;;;36.58;27.27;;;;;;;;;;143729;580;46012;-60
2022/02/06 08:34:59;;;;;;;35.67;24.77;;;;;;;;;;143727;592;47019;-60
2022/02/06 08:37:26;;;;;;;30.58;22.23;;;;;;;;;;143725;773;46022;-60
2022/02/06 08:39:54;;;;;;;32.08;22.42;;;;;;;;;;143727;620;46012;-60
2022/02/06 08:42:21;;;;;;;27.42;19.75;;;;;;;;;;143731;620;46022;-60
2022/02/06 08:44:48;;;;;;;28.25;20.27;;;;;;;;;;143728;602;46021;-61
2022/02/06 08:47:18;;;;;;;29.58;18.45;;;;;;;;;;143725;668;46022;-60
2022/02/06 08:49:46;;;;;;;29.25;19.30;;;;;;;;;;143724;690;46018;-61
2022/02/06 08:52:13;;;;;;;25.80;17.77;;;;;;;;;;143731;632;46012;-61
2022/02/06 08:54:42;;;;;;;29.92;20.30;;;;;;;;;;143728;671;46020;-61
2022/02/06 08:57:24;;;;;;;30.48;19.73;;;;;;;;;;143726;589;46022;-61
2022/02/06 08:59:52;;;;;;;24.67;17.08;;;;;;;;;;143726;570;46912;-61
2022/02/06 09:02:19;;;;;;;24.85;19.05;;;;;;;;;;143732;567;46022;-61
2022/02/06 09:04:46;;;;;;;28.73;19.10;;;;;;;;;;143728;572;46020;-61
2022/02/06 09:07:14;;;;;;;23.27;17.75;;;;;;;;;;143724;571;47012;-61
2022/02/06 09:09:49;;;;;;;25.20;17.10;;;;;;;;;;143729;590;46012;-61
2022/02/06 09:12:17;;;;;;;31.42;20.12;;;;;;;;;;143732;596;46022;-61
2022/02/06 09:14:46;;;;;;;26.60;18.45;;;;;;;;;;143728;588;46021;-61
2022/02/06 09:17:14;;;;;;;22.35;17.00;;;;;;;;;;143725;612;46022;-61
2022/02/06 09:19:41;;;;;;;24.63;18.17;;;;;;;;;;143728;589;46013;-61
2022/02/06 09:22:09;;;;;;;27.45;17.85;;;;;;;;;;143732;634;46012;-61
2022/02/06 09:24:37;;;;;;;27.05;19.00;;;;;;;;;;143728;592;46020;-61
2022/02/06 09:27:04;;;;;;;23.60;16.35;;;;;;;;;;143728;627;46023;-61
2022/02/06 09:29:31;;;;;;;22.50;15.63;;;;;;;;;;143725;580;46912;-61
2022/02/06 09:37:08;;;;;;;24.33;14.65;;;;;;;;;;143730;591;45919;-60
2022/02/06 09:39:39;;;;;;;18.75;14.75;;;;;;;;;;143728;580;46012;-61
2022/02/06 09:42:07;;;;;;;17.73;13.60;;;;;;;;;;143732;564;46022;-61
2022/02/06 09:44:35;;;;;;;16.90;12.57;;;;;;;;;;143729;632;46021;-60
2022/02/06 09:47:02;;;;;;;16.65;12.43;;;;;;;;;;143724;632;46022;-61
2022/02/06 09:49:31;;;;;;;25.45;16.50;;;;;;;;;;143726;576;46013;-61
2022/02/06 09:51:59;;;;;;;39.72;24.60;;;;;;;;;;143730;618;46023;-61
2022/02/06 09:54:28;;;;;;;30.33;21.25;;;;;;;;;;143728;584;46018;-61
2022/02/06 09:56:58;;;;;;;25.00;16.35;;;;;;;;;;143729;611;46023;-61
2022/02/06 09:59:27;;;;;;;24.35;16.10;;;;;;;;;;143730;605;45032;-61
2022/02/06 10:01:56;;;;;;;18.33;12.82;;;;;;;;;;143731;564;46022;-61
2022/02/06 10:04:26;;;;;;;17.20;12.95;;;;;;;;;;143729;606;46020;-62
2022/02/06 10:07:06;;;;;;;18.92;12.02;;;;;;;;;;143727;594;46023;-62
2022/02/06 10:09:52;;;;;;;17.98;11.15;;;;;;;;;;143729;600;46012;-62
2022/02/06 10:12:21;;;;;;;16.12;10.68;;;;;;;;;;143733;585;45023;-62
2022/02/06 10:14:49;;;;;;;14.20;9.98;;;;;;;;;;143728;573;46020;-61
2022/02/06 10:17:18;;;;;;;13.18;9.45;;;;;;;;;;143728;606;46022;-61
2022/02/06 10:19:55;;;;;;;11.18;9.05;;;;;;;;;;143728;585;46013;-62
2022/02/06 10:22:32;;;;;;;11.77;7.78;;;;;;;;;;143732;599;46012;-62
2022/02/06 10:25:08;;;;;;;10.73;7.80;;;;;;;;;;143728;564;46020;-61
2022/02/06 10:28:21;;;;;;;11.63;8.70;;;;;;;;;;143726;643;46023;-61
2022/02/06 10:30:45;;;;;;;12.07;8.27;;;;;;;;;;143727;592;47018;-61
2022/02/06 10:33:24;;;;;;;11.00;8.00;;;;;;;;;;143733;610;45022;-62
2022/02/06 10:35:55;;;;;;;13.80;10.63;;;;;;;;;;143728;585;46021;-61
2022/02/06 10:38:29;;;;;;;14.57;10.30;;;;;;;;;;143726;577;46022;-61
2022/02/06 10:41:17;;;;;;;14.02;10.32;;;;;;;;;;143728;576;46012;-60
2022/02/06 10:44:07;;;;;;;13.23;10.30;;;;;;;;;;143731;587;46012;-61
2022/02/06 10:46:57;;;;;;;14.23;10.75;;;;;;;;;;143729;666;46018;-61
2022/02/06 10:49:25;;;;;;;15.05;10.20;;;;;;;;;;143725;566;46922;-61
2022/02/06 10:52:02;;;;;;;12.30;9.25;;;;;;;;;;143727;569;46014;-61
2022/02/06 10:54:38;;;;;;;14.10;9.13;;;;;;;;;;143734;575;45033;-61
2022/02/06 10:57:13;;;;;;;11.90;8.70;;;;;;;;;;143729;639;46022;-61
2022/02/06 10:59:53;;;;;;;12.77;8.25;;;;;;;;;;143729;589;46022;-61
2022/02/06 11:02:32;;;;;;;15.52;8.35;;;;;;;;;;143729;623;46012;-61
2022/02/06 11:05:33;;;;;;;16.08;8.50;;;;;;;;;;143734;572;45023;-61
2022/02/06 11:08:03;;;;;;;12.00;7.32;;;;;;;;;;143727;574;46020;-61
2022/02/06 11:10:35;;;;;;;11.23;8.45;;;;;;;;;;143727;570;46022;-61
2022/02/06 11:13:04;;;;;;;12.35;7.97;;;;;;;;;;143729;614;45019;-62
2022/02/06 11:15:39;;;;;;;10.57;7.07;;;;;;;;;;143732;583;46022;-62
2022/02/06 11:18:20;;;;;;;11.02;7.07;;;;;;;;;;143730;580;46019;-62
2022/02/06 11:21:09;;;;;;;10.10;6.82;;;;;;;;;;143727;655;46023;-62
2022/02/06 11:23:55;;;;;;;9.57;7.22;;;;;;;;;;143729;602;46012;-62
2022/02/06 11:26:25;;;;;;;14.18;8.52;;;;;;;;;;143731;606;46023;-62
2022/02/06 11:28:54;;;;;;;9.35;6.95;;;;;;;;;;143729;590;46021;-62
2022/02/06 11:31:22;;;;;;;14.30;7.75;;;;;;;;;;143729;663;46022;-63
2022/02/06 11:33:50;;;;;;;13.70;8.23;;;;;;;;;;143730;583;46010;-62
2022/02/06 11:36:19;;;;;;;10.02;7.80;;;;;;;;;;143732;656;46012;-62
2022/02/06 11:45:28;;;;;;;17.05;9.43;;;;;;;;;;143729;638;46018;-63
2022/02/06 11:48:04;;;;;;;11.43;8.18;;;;;;;;;;143732;571;46013;-63
2022/02/06 11:50:33;;;;;;;12.05;9.02;;;;;;;;;;143730;583;46018;-63
2022/02/06 11:53:06;;;;;;;11.88;8.57;;;;;;;;;;143726;580;46022;-63
2022/02/06 11:55:43;;;;;;;14.05;8.23;;;;;;;;;;143730;571;46011;-63
2022/02/06 11:58:33;;;;;;;12.02;8.20;;;;;;;;;;143732;603;46012;-62
2022/02/06 12:01:31;;;;;;;12.93;8.70;;;;;;;;;;143729;574;46020;-62
2022/02/06 12:04:20;;;;;;;14.90;8.00;;;;;;;;;;143729;605;46023;-62
2022/02/06 12:06:57;;;;;;;10.38;7.60;;;;;;;;;;143729;618;46010;-62
2022/02/06 12:09:29;;;;;;;10.23;6.53;;;;;;;;;;143733;601;46022;-62
2022/02/06 12:12:25;;;;;;;10.05;7.15;;;;;;;;;;143729;609;46021;-61
2022/02/06 12:15:16;;;;;;;9.95;6.65;;;;;;;;;;143726;581;46022;-62
2022/02/06 12:18:27;;;;;;;13.73;7.60;;;;;;;;;;143731;613;46010;-62
2022/02/06 12:21:07;;;;;;;10.43;6.72;;;;;;;;;;143733;583;46022;-62
2022/02/06 12:23:42;;;;;;;10.07;7.00;;;;;;;;;;143730;674;46010;-61
2022/02/06 12:26:41;;;;;;;10.50;6.78;;;;;;;;;;143727;729;46023;-61
2022/02/06 12:29:27;;;;;;;10.38;7.22;;;;;;;;;;143731;829;45020;-61
2022/02/06 12:32:04;;;;;;;11.85;7.72;;;;;;;;;;143733;741;46024;-61
2022/02/06 12:37:32;;;;;;;10.30;7.95;;;;;;;;;;143731;878;45916;-62
2022/02/06 12:40:21;;;;;;;10.77;7.80;;;;;;;;;;143727;628;46010;-62
2022/02/06 12:42:59;;;;;;;12.85;8.73;;;;;;;;;;143732;670;46023;-61
2022/02/06 12:45:28;;;;;;;11.63;7.55;;;;;;;;;;143730;607;46018;-61
2022/02/06 12:48:02;;;;;;;11.77;8.02;;;;;;;;;;143727;564;46022;-61
2022/02/06 12:50:34;;;;;;;10.73;7.75;;;;;;;;;;143728;635;46010;-62
2022/02/06 12:53:03;;;;;;;11.43;7.95;;;;;;;;;;143732;712;46022;-61
2022/02/06 12:55:36;;;;;;;14.38;8.38;;;;;;;;;;143730;627;46020;-62
2022/02/06 12:58:09;;;;;;;15.23;8.60;;;;;;;;;;143726;764;46023;-62
2022/02/06 13:00:46;;;;;;;10.43;7.55;;;;;;;;;;143731;573;46014;-62
2022/02/06 13:03:41;;;;;;;12.10;8.35;;;;;;;;;;143733;631;46022;-61
2022/02/06 13:06:11;;;;;;;12.32;8.20;;;;;;;;;;143729;577;46023;-62
2022/02/06 13:08:42;;;;;;;13.95;7.68;;;;;;;;;;143727;569;46022;-61
2022/02/06 13:11:18;;;;;;;10.10;7.03;;;;;;;;;;143730;710;46010;-61
2022/02/06 13:16:58;;;;;;;12.50;8.20;;;;;;;;;;143729;605;46018;-61
2022/02/06 13:22:22;;;;;;;16.40;7.65;;;;;;;;;;143731;592;46020;-62
2022/02/06 13:33:54;;;;;;;10.68;7.97;;;;;;;;;;143730;570;46020;-62
2022/02/06 13:39:23;;;;;;;11.70;7.97;;;;;;;;;;143726;622;47010;-61
2022/02/06 13:41:51;;;;;;;11.57;7.97;;;;;;;;;;143727;618;46023;-61
2022/02/06 13:44:23;;;;;;;10.70;8.20;;;;;;;;;;143728;586;46010;-61
2022/02/06 13:46:52;;;;;;;11.00;8.15;;;;;;;;;;143733;594;46012;-61
2022/02/06 13:49:36;;;;;;;10.88;7.75;;;;;;;;;;143730;586;46021;-61
2022/02/06 13:52:08;;;;;;;13.30;8.95;;;;;;;;;;143727;600;46022;-61
2022/02/06 13:54:41;;;;;;;11.18;7.90;;;;;;;;;;143728;564;46018;-61
2022/02/06 13:57:09;;;;;;;9.77;7.25;;;;;;;;;;143732;599;46013;-60
2022/02/06 13:59:42;;;;;;;9.77;8.18;;;;;;;;;;143729;585;46020;-61
2022/02/06 14:02:11;;;;;;;11.45;8.30;;;;;;;;;;143726;596;46023;-60
2022/02/06 14:04:42;;;;;;;11.30;8.05;;;;;;;;;;143730;569;46010;-60
2022/02/06 14:07:19;;;;;;;9.43;7.05;;;;;;;;;;143733;579;46012;-60
2022/02/06 14:12:54;;;;;;;11.98;7.50;;;;;;;;;;143731;569;45921;-61
2022/02/06 14:15:29;;;;;;;9.35;6.93;;;;;;;;;;143730;593;46010;-62
2022/02/06 14:18:04;;;;;;;10.98;7.53;;;;;;;;;;143732;597;46022;-60
2022/02/06 14:20:31;;;;;;;8.73;6.65;;;;;;;;;;143728;622;46020;-61
2022/02/06 14:23:03;;;;;;;10.43;7.18;;;;;;;;;;143729;586;46022;-60
2022/02/06 14:25:34;;;;;;;10.25;6.82;;;;;;;;;;143729;579;46011;-62
2022/02/06 14:28:26;;;;;;;11.32;7.75;;;;;;;;;;143732;592;46023;-61
2022/02/06 14:30:54;;;;;;;11.12;7.10;;;;;;;;;;143729;586;46020;-61
2022/02/06 14:33:24;;;;;;;11.12;7.25;;;;;;;;;;143729;566;46023;-60
2022/02/06 14:36:01;;;;;;;13.25;7.45;;;;;;;;;;143728;594;46010;-59
2022/02/06 14:38:48;;;;;;;10.98;7.15;;;;;;;;;;143733;579;46022;-60
2022/02/06 14:44:15;;;;;;;12.00;7.47;;;;;;;;;;143731;569;45918;-60
2022/02/06 14:46:42;;;;;;;11.40;7.53;;;;;;;;;;143729;583;46010;-61
2022/02/06 14:49:17;;;;;;;15.85;8.55;;;;;;;;;;143732;587;46012;-61
2022/02/06 14:51:44;;;;;;;13.40;8.32;;;;;;;;;;143727;642;47018;-60
2022/02/06 14:54:15;;;;;;;12.00;8.52;;;;;;;;;;143728;567;46022;-61
2022/02/06 14:56:42;;;;;;;13.48;8.02;;;;;;;;;;143728;569;46010;-61
2022/02/06 14:59:09;;;;;;;10.68;7.60;;;;;;;;;;143733;600;46012;-60
2022/02/06 15:01:36;;;;;;;14.18;7.57;;;;;;;;;;143730;567;46018;-61
2022/02/06 15:04:03;;;;;;;11.43;7.62;;;;;;;;;;143729;619;46022;-60
2022/02/06 15:06:31;;;;;;;11.10;7.55;;;;;;;;;;143729;602;46010;-61
2022/02/06 15:08:58;;;;;;;10.38;7.10;;;;;;;;;;143734;592;45031;-61
2022/02/06 15:11:25;;;;;;;10.73;8.13;;;;;;;;;;143730;564;46021;-60
2022/02/06 15:13:52;;;;;;;13.23;8.63;;;;;;;;;;143728;599;46022;-60
2022/02/06 15:16:24;;;;;;;18.00;11.27;;;;;;;;;;143730;597;46010;-61
2022/02/06 15:21:36;;;;;;;20.67;12.32;;;;;;;;;;143728;582;46020;-60
2022/02/06 15:24:03;;;;;;;17.48;11.73;;;;;;;;;;143727;748;46023;-61
2022/02/06 15:26:30;;;;;;;18.05;12.80;;;;;;;;;;143729;691;46010;-60
2022/02/06 15:28:57;;;;;;;21.25;11.30;;;;;;;;;;143732;564;46022;-60
2022/02/06 15:31:24;;;;;;;18.00;11.18;;;;;;;;;;143729;615;46019;-60
2022/02/06 15:33:52;;;;;;;16.10;12.13;;;;;;;;;;143727;592;46022;-61
2022/02/06 15:36:19;;;;;;;17.98;12.65;;;;;;;;;;143728;589;46010;-61
2022/02/06 15:38:48;;;;;;;29.77;17.70;;;;;;;;;;143731;658;46022;-60
2022/02/06 15:41:15;;;;;;;23.75;13.40;;;;;;;;;;143728;592;46021;-61
2022/02/06 15:43:42;;;;;;;44.38;25.42;;;;;;;;;;143726;639;46022;-62
2022/02/06 15:46:09;;;;;;;43.03;21.62;;;;;;;;;;143728;581;46010;-60
2022/02/06 15:48:36;;;;;;;34.42;19.75;;;;;;;;;;143731;668;46023;-61
2022/02/06 15:51:03;;;;;;;32.22;17.00;;;;;;;;;;143728;600;46018;-61
2022/02/06 15:53:30;;;;;;;30.33;16.80;;;;;;;;;;143727;684;46022;-60
2022/02/06 15:55:57;;;;;;;28.87;16.50;;;;;;;;;;143725;578;46010;-60
2022/02/06 15:58:24;;;;;;;25.77;15.73;;;;;;;;;;143731;583;46022;-61
2022/02/06 16:00:51;;;;;;;20.62;13.30;;;;;;;;;;143728;567;46019;-60
2022/02/06 16:03:20;;;;;;;20.65;13.07;;;;;;;;;;143726;603;46023;-61
2022/02/06 16:05:47;;;;;;;22.37;12.25;;;;;;;;;;143729;571;46010;-60
2022/02/06 16:08:14;;;;;;;19.92;11.68;;;;;;;;;;143733;592;46022;-61
2022/02/06 16:10:41;;;;;;;15.60;10.93;;;;;;;;;;143728;577;46021;-60
2022/02/06 16:13:09;;;;;;;18.33;11.68;;;;;;;;;;143725;580;46022;-60
2022/02/06 16:15:36;;;;;;;19.10;11.25;;;;;;;;;;143730;593;45018;-60
2022/02/06 16:18:03;;;;;;;18.48;11.90;;;;;;;;;;143731;678;46023;-60
2022/02/06 16:20:30;;;;;;;16.40;11.85;;;;;;;;;;143728;734;46020;-61
2022/02/06 16:22:57;;;;;;;20.02;12.05;;;;;;;;;;143727;677;46022;-61
2022/02/06 16:25:25;;;;;;;20.35;10.88;;;;;;;;;;143726;565;46010;-61
2022/02/06 16:27:52;;;;;;;16.55;10.85;;;;;;;;;;143730;601;46012;-60
2022/02/06 16:30:19;;;;;;;21.05;11.77;;;;;;;;;;143728;564;46018;-60
2022/02/06 16:32:46;;;;;;;17.73;10.63;;;;;;;;;;143725;570;46023;-59
2022/02/06 16:35:13;;;;;;;21.95;11.40;;;;;;;;;;143726;585;46010;-59
2022/02/06 16:37:40;;;;;;;19.30;12.23;;;;;;;;;;143731;604;46022;-60
2022/02/06 16:40:07;;;;;;;23.00;13.70;;;;;;;;;;143731;635;46018;-60
2022/02/06 16:42:34;;;;;;;19.02;11.23;;;;;;;;;;143725;622;46022;-61
2022/02/06 16:45:02;;;;;;;18.70;12.25;;;;;;;;;;143726;570;46010;-60
2022/02/06 16:47:28;;;;;;;16.70;11.02;;;;;;;;;;143731;569;46012;-60
2022/02/06 16:49:55;;;;;;;18.80;11.57;;;;;;;;;;143728;566;46020;-61
2022/02/06 16:52:22;;;;;;;15.65;10.75;;;;;;;;;;143726;636;47022;-60
2022/02/06 16:54:49;;;;;;;17.75;12.27;;;;;;;;;;143729;636;46010;-61
2022/02/06 16:57:16;;;;;;;18.90;11.40;;;;;;;;;;143731;574;46012;-60
2022/02/06 16:59:43;;;;;;;18.52;11.02;;;;;;;;;;143728;657;46020;-60
2022/02/06 17:02:11;;;;;;;14.77;10.48;;;;;;;;;;143724;570;46921;-60
2022/02/06 17:04:37;;;;;;;19.65;11.52;;;;;;;;;;143726;604;46010;-61
2022/02/06 17:07:05;;;;;;;16.70;10.05;;;;;;;;;;143731;590;46022;-61
2022/02/06 17:09:32;;;;;;;21.45;11.18;;;;;;;;;;143727;645;46020;-61
2022/02/06 17:11:59;;;;;;;20.30;12.60;;;;;;;;;;143727;579;46022;-61
2022/02/06 17:14:26;;;;;;;18.48;12.00;;;;;;;;;;143728;587;46010;-61